| time (UTC) | temp C | wind direction | speed KPH | gust KPH | rain 1hr cm | rain 24hr cm | rain mn cm | humidity % | barometer mb |
| 20260509072825 | 22 | 116 | 0.0 | 1.6 | 0.00 | 0.00 | 0.00 | 92 | 1025.8 |
| 20260509072321 | 22 | 162 | 1.6 | 1.6 | 0.00 | 0.00 | 0.00 | 92 | 1025.8 |
| 20260509071818 | 22 | 31 | 1.6 | 3.2 | 0.00 | 0.00 | 0.00 | 92 | 1025.6 |
| 20260509071315 | 22 | 161 | 1.6 | 3.2 | 0.00 | 0.00 | 0.00 | 92 | 1025.7 |
| 20260509070812 | 22 | 49 | 0.0 | 1.6 | 0.00 | 0.00 | 0.00 | 92 | 1025.7 |
| 20260509070309 | 22 | 155 | 1.6 | 1.6 | 0.00 | 0.00 | 0.00 | 92 | 1026.0 |
| 20260509065805 | 22 | 64 | 0.0 | 1.6 | 0.00 | 0.00 | 0.00 | 91 | 1026.1 |
| 20260509065305 | 22 | 71 | 0.0 | 1.6 | 0.00 | 0.00 | 0.00 | 91 | 1025.9 |
| 20260509064758 | 22 | 46 | 0.0 | 3.2 | 0.00 | 0.00 | 0.00 | 91 | 1025.8 |
| 20260509064255 | 22 | 99 | 0.0 | 1.6 | 0.00 | 0.00 | 0.00 | 91 | 1025.8 |
| 20260509063753 | 22 | 128 | 3.2 | 4.8 | 0.00 | 0.00 | 0.00 | 91 | 1025.9 |
| 20260509063249 | 22 | 56 | 0.0 | 1.6 | 0.00 | 0.00 | 0.00 | 91 | 1026.0 |
| 20260509062746 | 22 | 42 | 1.6 | 1.6 | 0.00 | 0.00 | 0.00 | 91 | 1025.9 |
| 20260509062243 | 22 | 151 | 3.2 | 4.8 | 0.00 | 0.00 | 0.00 | 91 | 1025.9 |
| 20260509061740 | 22 | 131 | 1.6 | 1.6 | 0.00 | 0.00 | 0.00 | 91 | 1025.9 |
| 20260509061238 | 22 | 75 | 0.0 | 3.2 | 0.00 | 0.00 | 0.00 | 91 | 1025.8 |
| 20260509060735 | 22 | 83 | 1.6 | 1.6 | 0.00 | 0.00 | 0.00 | 91 | 1025.9 |
| 20260509060231 | 22 | 70 | 0.0 | 0.0 | 0.00 | 0.00 | 0.00 | 91 | 1025.9 |
| 20260509055727 | 22 | 106 | 0.0 | 1.6 | 0.00 | 0.00 | 0.00 | 91 | 1026.0 |
| 20260509055223 | 22 | 60 | 0.0 | 0.0 | 0.00 | 0.00 | 0.00 | 91 | 1026.1 |
| 20260509054720 | 22 | 68 | 0.0 | 0.0 | 0.00 | 0.00 | 0.00 | 91 | 1026.2 |
| 20260509054217 | 22 | 72 | 0.0 | 1.6 | 0.00 | 0.00 | 0.00 | 91 | 1026.4 |
| 20260509053716 | 22 | 91 | 0.0 | 1.6 | 0.00 | 0.00 | 0.00 | 92 | 1026.5 |
| 20260509053212 | 22 | 63 | 0.0 | 0.0 | 0.00 | 0.00 | 0.00 | 92 | 1026.6 |
| 20260509052710 | 22 | 69 | 0.0 | 1.6 | 0.00 | 0.00 | 0.00 | 92 | 1026.7 |
| 20260509052207 | 22 | 60 | 0.0 | 1.6 | 0.00 | 0.00 | 0.00 | 92 | 1026.4 |
| 20260509051705 | 22 | 74 | 0.0 | 1.6 | 0.00 | 0.00 | 0.00 | 92 | 1026.6 |
| 20260509051202 | 22 | 77 | 0.0 | 0.0 | 0.00 | 0.00 | 0.00 | 92 | 1026.7 |
| 20260509050659 | 22 | 86 | 0.0 | 1.6 | 0.00 | 0.00 | 0.00 | 92 | 1026.6 |
| 20260509050156 | 22 | 61 | 0.0 | 0.0 | 0.00 | 0.00 | 0.00 | 92 | 1026.5 |
| 20260509045653 | 22 | 81 | 0.0 | 0.0 | 0.00 | 0.00 | 0.00 | 92 | 1026.5 |
| 20260509045150 | 22 | 72 | 0.0 | 0.0 | 0.00 | 0.00 | 0.00 | 91 | 1026.5 |
| 20260509044647 | 22 | 74 | 0.0 | 0.0 | 0.00 | 0.00 | 0.00 | 91 | 1026.3 |
| 20260509044144 | 22 | 124 | 0.0 | 0.0 | 0.00 | 0.00 | 0.00 | 91 | 1026.2 |
| 20260509043641 | 22 | 76 | 0.0 | 0.0 | 0.00 | 0.00 | 0.00 | 90 | 1026.1 |
| 20260509043136 | 22 | 53 | 0.0 | 1.6 | 0.00 | 0.00 | 0.00 | 90 | 1026.1 |
| 20260509042633 | 22 | 66 | 0.0 | 0.0 | 0.00 | 0.00 | 0.00 | 90 | 1026.0 |
| 20260509042129 | 22 | 88 | 1.6 | 1.6 | 0.00 | 0.00 | 0.00 | 90 | 1026.0 |
| 20260509041626 | 22 | 62 | 0.0 | 1.6 | 0.00 | 0.00 | 0.00 | 89 | 1026.0 |
| 20260509041123 | 22 | 95 | 1.6 | 1.6 | 0.00 | 0.00 | 0.00 | 89 | 1025.8 |
| 20260509040622 | 22 | 82 | 1.6 | 1.6 | 0.00 | 0.00 | 0.00 | 88 | 1025.9 |
| 20260509040119 | 23 | 85 | 1.6 | 3.2 | 0.00 | 0.00 | 0.00 | 88 | 1025.9 |
| 20260509035615 | 23 | 73 | 1.6 | 3.2 | 0.00 | 0.00 | 0.00 | 88 | 1025.8 |
| 20260509035112 | 23 | 88 | 1.6 | 3.2 | 0.00 | 0.00 | 0.00 | 87 | 1025.8 |
| 20260509034610 | 23 | 88 | 1.6 | 3.2 | 0.00 | 0.00 | 0.00 | 87 | 1025.7 |
| 20260509034107 | 23 | 51 | 0.0 | 1.6 | 0.00 | 0.00 | 0.00 | 86 | 1025.8 |
| 20260509033604 | 23 | 91 | 1.6 | 4.8 | 0.00 | 0.00 | 0.00 | 86 | 1025.9 |
| 20260509033100 | 23 | 48 | 1.6 | 3.2 | 0.00 | 0.00 | 0.00 | 86 | 1025.9 |
| 20260509032558 | 23 | 90 | 0.0 | 1.6 | 0.00 | 0.00 | 0.00 | 85 | 1026.0 |
| 20260509032055 | 23 | 59 | 0.0 | 1.6 | 0.00 | 0.00 | 0.00 | 85 | 1025.8 |
| 20260509031553 | 23 | 98 | 1.6 | 3.2 | 0.00 | 0.00 | 0.00 | 85 | 1025.8 |
| 20260509031049 | 23 | 102 | 1.6 | 3.2 | 0.00 | 0.00 | 0.00 | 85 | 1025.8 |
| 20260509030548 | 23 | 88 | 1.6 | 6.4 | 0.00 | 0.00 | 0.00 | 85 | 1025.8 |
| 20260509030044 | 23 | 62 | 0.0 | 3.2 | 0.00 | 0.00 | 0.00 | 84 | 1025.8 |
| 20260509025540 | 23 | 62 | 0.0 | 3.2 | 0.00 | 0.00 | 0.00 | 85 | 1025.9 |
| 20260509025036 | 23 | 138 | 0.0 | 1.6 | 0.00 | 0.00 | 0.00 | 85 | 1025.9 |
| 20260509024532 | 23 | 71 | 0.0 | 1.6 | 0.00 | 0.00 | 0.00 | 85 | 1025.7 |
| 20260509024028 | 23 | 110 | 0.0 | 3.2 | 0.00 | 0.00 | 0.00 | 84 | 1025.5 |
| 20260509023526 | 23 | 66 | 0.0 | 1.6 | 0.00 | 0.00 | 0.00 | 84 | 1025.4 |
| 20260509023023 | 23 | 51 | 0.0 | 1.6 | 0.00 | 0.00 | 0.00 | 84 | 1025.3 |
| 20260509022519 | 23 | 73 | 0.0 | 1.6 | 0.00 | 0.00 | 0.00 | 84 | 1025.3 |
| 20260509022017 | 23 | 54 | 1.6 | 3.2 | 0.00 | 0.00 | 0.00 | 83 | 1025.1 |
| 20260509021514 | 24 | 128 | 4.8 | 4.8 | 0.00 | 0.00 | 0.00 | 83 | 1025.1 |
| 20260509021011 | 24 | 149 | 0.0 | 1.6 | 0.00 | 0.00 | 0.00 | 83 | 1025.1 |
| 20260509020509 | 23 | 31 | 0.0 | 1.6 | 0.00 | 0.00 | 0.00 | 83 | 1024.9 |
| 20260509020006 | 24 | 72 | 1.6 | 1.6 | 0.00 | 0.00 | 0.00 | 83 | 1024.8 |
| 20260509015505 | 24 | 91 | 0.0 | 1.6 | 0.00 | 0.00 | 0.00 | 82 | 1024.7 |
| 20260509015001 | 24 | 81 | 1.6 | 1.6 | 0.00 | 0.00 | 0.00 | 81 | 1024.7 |
| 20260509014458 | 24 | 77 | 0.0 | 1.6 | 0.00 | 0.00 | 0.00 | 81 | 1024.6 |
| 20260509013954 | 24 | 74 | 1.6 | 4.8 | 0.00 | 0.00 | 0.00 | 80 | 1024.7 |
| 20260509013451 | 24 | 71 | 0.0 | 1.6 | 0.00 | 0.00 | 0.00 | 80 | 1024.7 |
| 20260509012947 | 25 | 93 | 1.6 | 3.2 | 0.00 | 0.00 | 0.00 | 80 | 1024.7 |
| 20260509012444 | 25 | 91 | 0.0 | 1.6 | 0.00 | 0.00 | 0.00 | 80 | 1024.6 |
| 20260509011941 | 25 | 77 | 1.6 | 3.2 | 0.00 | 0.00 | 0.00 | 79 | 1024.6 |
| 20260509011438 | 25 | 19 | 3.2 | 4.8 | 0.00 | 0.00 | 0.00 | 79 | 1024.6 |
| 20260509010936 | 25 | 55 | 0.0 | 0.0 | 0.00 | 0.00 | 0.00 | 79 | 1024.5 |
| 20260509010433 | 25 | 84 | 1.6 | 3.2 | 0.00 | 0.00 | 0.00 | 79 | 1024.4 |
| 20260509005930 | 25 | 57 | 0.0 | 1.6 | 0.00 | 0.00 | 0.00 | 79 | 1024.5 |
| 20260509005429 | 25 | 101 | 1.6 | 3.2 | 0.00 | 0.00 | 0.00 | 78 | 1024.5 |
| 20260509004928 | 25 | 73 | 0.0 | 1.6 | 0.00 | 0.00 | 0.00 | 78 | 1024.4 |
| 20260509004425 | 25 | 45 | 1.6 | 1.6 | 0.00 | 0.00 | 0.00 | 78 | 1024.6 |
| 20260509003923 | 25 | 90 | 0.0 | 3.2 | 0.00 | 0.00 | 0.00 | 77 | 1024.5 |
| 20260509003420 | 25 | 80 | 0.0 | 1.6 | 0.00 | 0.00 | 0.00 | 77 | 1024.5 |
| 20260509002917 | 25 | 35 | 0.0 | 1.6 | 0.00 | 0.00 | 0.00 | 77 | 1024.5 |
| 20260509002415 | 25 | 55 | 0.0 | 1.6 | 0.00 | 0.00 | 0.00 | 76 | 1024.3 |
| 20260509001912 | 25 | 129 | 0.0 | 1.6 | 0.00 | 0.00 | 0.00 | 76 | 1024.4 |
| 20260509001408 | 25 | 98 | 1.6 | 3.2 | 0.00 | 0.00 | 0.00 | 76 | 1024.3 |
| 20260509000905 | 25 | 45 | 0.0 | 1.6 | 0.00 | 0.00 | 0.00 | 76 | 1024.5 |
| 20260509000403 | 26 | 51 | 1.6 | 4.8 | 0.00 | 0.00 | 0.00 | 76 | 1024.4 |
| 20260508235859 | 26 | 44 | 1.6 | 4.8 | 0.00 | 0.00 | 0.00 | 75 | 1024.4 |
| 20260508235356 | 26 | 196 | 1.6 | 3.2 | 0.00 | 0.00 | 0.00 | 75 | 1024.4 |
| 20260508234853 | 26 | 51 | 1.6 | 1.6 | 0.00 | 0.00 | 0.00 | 76 | 1024.5 |
| 20260508234350 | 25 | 83 | 1.6 | 3.2 | 0.00 | 0.00 | 0.00 | 76 | 1024.3 |
| 20260508233849 | 25 | 47 | 3.2 | 4.8 | 0.00 | 0.00 | 0.00 | 76 | 1024.4 |
| 20260508233347 | 25 | 45 | 0.0 | 1.6 | 0.00 | 0.00 | 0.00 | 76 | 1024.4 |
| 20260508232844 | 26 | 77 | 6.4 | 6.4 | 0.00 | 0.00 | 0.00 | 75 | 1024.3 |
| 20260508232340 | 26 | 21 | 3.2 | 3.2 | 0.00 | 0.00 | 0.00 | 73 | 1024.1 |
| 20260508231839 | 26 | 48 | 0.0 | 6.4 | 0.00 | 0.00 | 0.00 | 73 | 1024.4 |
| 20260508231334 | 26 | 92 | 3.2 | 3.2 | 0.00 | 0.00 | 0.00 | 72 | 1024.1 |
| 20260508230831 | 26 | 86 | 1.6 | 4.8 | 0.00 | 0.00 | 0.00 | 72 | 1024.1 |
| 20260508230327 | 26 | 52 | 1.6 | 1.6 | 0.00 | 0.00 | 0.00 | 72 | 1024.4 |
| 20260508225826 | 26 | 144 | 1.6 | 9.7 | 0.00 | 0.00 | 0.00 | 71 | 1024.5 |
| 20260508225322 | 26 | 72 | 0.0 | 1.6 | 0.00 | 0.00 | 0.00 | 72 | 1024.5 |
| 20260508224820 | 26 | 349 | 1.6 | 3.2 | 0.00 | 0.00 | 0.00 | 72 | 1024.7 |
| 20260508224317 | 26 | 155 | 1.6 | 4.8 | 0.00 | 0.00 | 0.00 | 72 | 1024.7 |
| 20260508223815 | 26 | 43 | 0.0 | 1.6 | 0.00 | 0.00 | 0.00 | 72 | 1024.7 |
| 20260508223312 | 26 | 60 | 0.0 | 1.6 | 0.00 | 0.00 | 0.00 | 71 | 1024.8 |
| 20260508222809 | 26 | 101 | 1.6 | 3.2 | 0.00 | 0.00 | 0.00 | 71 | 1024.9 |
| 20260508222306 | 26 | 84 | 0.0 | 3.2 | 0.00 | 0.00 | 0.00 | 70 | 1024.9 |
| 20260508221803 | 26 | 61 | 0.0 | 1.6 | 0.00 | 0.00 | 0.00 | 70 | 1024.8 |
| 20260508221258 | 26 | 59 | 3.2 | 4.8 | 0.00 | 0.00 | 0.00 | 70 | 1024.9 |
| 20260508220755 | 26 | 45 | 0.0 | 1.6 | 0.00 | 0.00 | 0.00 | 69 | 1024.9 |
| 20260508220252 | 27 | 93 | 0.0 | 3.2 | 0.00 | 0.00 | 0.00 | 69 | 1024.9 |
| 20260508215748 | 27 | 107 | 0.0 | 1.6 | 0.00 | 0.00 | 0.00 | 69 | 1025.0 |
| 20260508215245 | 27 | 51 | 1.6 | 3.2 | 0.00 | 0.00 | 0.00 | 68 | 1024.9 |
| 20260508214742 | 27 | 39 | 1.6 | 1.6 | 0.00 | 0.00 | 0.00 | 68 | 1024.9 |
| 20260508214239 | 26 | 87 | 1.6 | 1.6 | 0.00 | 0.00 | 0.00 | 69 | 1024.9 |
| 20260508213736 | 26 | 47 | 1.6 | 4.8 | 0.00 | 0.00 | 0.00 | 70 | 1024.9 |
| 20260508213232 | 26 | 143 | 4.8 | 6.4 | 0.00 | 0.00 | 0.00 | 70 | 1025.1 |
| 20260508212729 | 26 | 90 | 1.6 | 3.2 | 0.00 | 0.00 | 0.00 | 71 | 1025.2 |
| 20260508212225 | 26 | 80 | 0.0 | 1.6 | 0.00 | 0.00 | 0.00 | 71 | 1025.4 |
| 20260508211721 | 26 | 155 | 1.6 | 4.8 | 0.00 | 0.00 | 0.00 | 71 | 1025.3 |
| 20260508211217 | 26 | 93 | 1.6 | 1.6 | 0.00 | 0.00 | 0.00 | 69 | 1025.3 |
| 20260508210715 | 26 | 284 | 1.6 | 1.6 | 0.00 | 0.00 | 0.00 | 68 | 1025.4 |
| 20260508210211 | 26 | 65 | 0.0 | 3.2 | 0.00 | 0.00 | 0.00 | 68 | 1025.6 |
| 20260508205708 | 26 | 77 | 1.6 | 4.8 | 0.00 | 0.00 | 0.00 | 67 | 1025.6 |
| 20260508205205 | 26 | 73 | 0.0 | 1.6 | 0.00 | 0.00 | 0.00 | 66 | 1025.5 |
| 20260508204701 | 26 | 83 | 3.2 | 3.2 | 0.00 | 0.00 | 0.00 | 68 | 1025.5 |
| 20260508204157 | 25 | 47 | 0.0 | 3.2 | 0.00 | 0.00 | 0.00 | 70 | 1025.6 |
| 20260508203653 | 25 | 35 | 3.2 | 3.2 | 0.00 | 0.00 | 0.00 | 69 | 1025.6 |
| 20260508203150 | 25 | 131 | 3.2 | 4.8 | 0.00 | 0.00 | 0.00 | 68 | 1025.8 |
| 20260508202646 | 26 | 85 | 1.6 | 3.2 | 0.00 | 0.00 | 0.00 | 67 | 1025.9 |
| 20260508202143 | 25 | 64 | 1.6 | 4.8 | 0.00 | 0.00 | 0.00 | 68 | 1025.9 |
| 20260508201640 | 25 | 107 | 1.6 | 3.2 | 0.00 | 0.00 | 0.00 | 68 | 1025.8 |
| 20260508201136 | 25 | 105 | 4.8 | 6.4 | 0.00 | 0.00 | 0.00 | 67 | 1025.9 |
| 20260508200633 | 25 | 39 | 1.6 | 3.2 | 0.00 | 0.00 | 0.00 | 67 | 1026.1 |
| 20260508200129 | 25 | 78 | 1.6 | 1.6 | 0.00 | 0.00 | 0.00 | 68 | 1026.1 |
| 20260508195626 | 25 | 56 | 1.6 | 3.2 | 0.00 | 0.00 | 0.00 | 68 | 1026.2 |
| 20260508195123 | 25 | 88 | 1.6 | 3.2 | 0.00 | 0.00 | 0.00 | 68 | 1026.3 |
| 20260508194619 | 25 | 64 | 1.6 | 1.6 | 0.00 | 0.00 | 0.00 | 69 | 1026.4 |
| 20260508194116 | 25 | 94 | 1.6 | 3.2 | 0.00 | 0.00 | 0.00 | 68 | 1026.4 |
| 20260508193613 | 25 | 76 | 1.6 | 1.6 | 0.00 | 0.00 | 0.00 | 68 | 1026.3 |
| 20260508193110 | 25 | 70 | 0.0 | 4.8 | 0.00 | 0.00 | 0.00 | 69 | 1026.3 |
| 20260508192606 | 25 | 173 | 1.6 | 1.6 | 0.00 | 0.00 | 0.00 | 68 | 1026.2 |
| 20260508192104 | 25 | 86 | 0.0 | 4.8 | 0.00 | 0.00 | 0.00 | 68 | 1026.4 |
| 20260508191600 | 25 | 65 | 0.0 | 1.6 | 0.00 | 0.00 | 0.00 | 67 | 1026.4 |
| 20260508191057 | 25 | 51 | 1.6 | 3.2 | 0.00 | 0.00 | 0.00 | 67 | 1026.4 |
| 20260508190554 | 24 | 139 | 0.0 | 1.6 | 0.00 | 0.00 | 0.00 | 68 | 1026.5 |
| 20260508190050 | 24 | 60 | 0.0 | 1.6 | 0.00 | 0.00 | 0.00 | 68 | 1026.8 |
| 20260508185548 | 24 | 62 | 0.0 | 1.6 | 0.00 | 0.00 | 0.00 | 67 | 1026.9 |
| 20260508185045 | 24 | 78 | 1.6 | 1.6 | 0.00 | 0.00 | 0.00 | 68 | 1026.9 |
| 20260508184543 | 23 | 105 | 1.6 | 1.6 | 0.00 | 0.00 | 0.00 | 70 | 1027.0 |
| 20260508184039 | 23 | 69 | 0.0 | 1.6 | 0.00 | 0.00 | 0.00 | 70 | 1027.0 |
| 20260508183536 | 23 | 56 | 0.0 | 1.6 | 0.00 | 0.00 | 0.00 | 69 | 1027.0 |
| 20260508183032 | 23 | 114 | 0.0 | 1.6 | 0.00 | 0.00 | 0.00 | 69 | 1027.2 |
| 20260508182529 | 23 | 67 | 0.0 | 0.0 | 0.00 | 0.00 | 0.00 | 70 | 1027.3 |
| 20260508182025 | 22 | 100 | 0.0 | 1.6 | 0.00 | 0.00 | 0.00 | 70 | 1027.3 |
| 20260508181520 | 22 | 60 | 0.0 | 1.6 | 0.00 | 0.00 | 0.00 | 71 | 1027.5 |
| 20260508181019 | 22 | 74 | 0.0 | 1.6 | 0.00 | 0.00 | 0.00 | 73 | 1027.5 |
| 20260508180515 | 22 | 66 | 0.0 | 3.2 | 0.00 | 0.00 | 0.00 | 73 | 1027.6 |
| 20260508180011 | 22 | 64 | 1.6 | 3.2 | 0.00 | 0.00 | 0.00 | 72 | 1027.6 |
| 20260508175508 | 22 | 57 | 0.0 | 1.6 | 0.00 | 0.00 | 0.00 | 71 | 1027.7 |
| 20260508175005 | 22 | 67 | 0.0 | 1.6 | 0.00 | 0.00 | 0.00 | 71 | 1027.8 |
| 20260508174502 | 22 | 120 | 0.0 | 1.6 | 0.00 | 0.00 | 0.00 | 71 | 1027.8 |
| 20260508173959 | 22 | 63 | 0.0 | 1.6 | 0.00 | 0.00 | 0.00 | 70 | 1027.8 |
| 20260508173456 | 22 | 69 | 0.0 | 1.6 | 0.00 | 0.00 | 0.00 | 69 | 1027.6 |
| 20260508172952 | 22 | 68 | 0.0 | 1.6 | 0.00 | 0.00 | 0.00 | 70 | 1027.8 |
| 20260508172449 | 21 | 66 | 1.6 | 3.2 | 0.00 | 0.00 | 0.00 | 71 | 1027.9 |
| 20260508171946 | 22 | 63 | 1.6 | 3.2 | 0.00 | 0.00 | 0.00 | 70 | 1027.9 |
| 20260508171443 | 21 | 61 | 0.0 | 1.6 | 0.00 | 0.00 | 0.00 | 70 | 1027.8 |
| 20260508170939 | 21 | 73 | 3.2 | 4.8 | 0.00 | 0.00 | 0.00 | 71 | 1027.9 |
| 20260508170437 | 21 | 34 | 3.2 | 3.2 | 0.00 | 0.00 | 0.00 | 71 | 1027.9 |
| 20260508165933 | 21 | 52 | 1.6 | 4.8 | 0.00 | 0.00 | 0.00 | 70 | 1027.9 |
| 20260508165431 | 21 | 66 | 0.0 | 1.6 | 0.00 | 0.00 | 0.00 | 72 | 1028.0 |
| 20260508164926 | 21 | 42 | 1.6 | 1.6 | 0.00 | 0.00 | 0.00 | 71 | 1028.1 |
| 20260508164424 | 21 | 69 | 0.0 | 3.2 | 0.00 | 0.00 | 0.00 | 73 | 1028.3 |
| 20260508163921 | 21 | 29 | 0.0 | 1.6 | 0.00 | 0.00 | 0.00 | 72 | 1028.1 |
| 20260508163419 | 20 | 85 | 1.6 | 3.2 | 0.00 | 0.00 | 0.00 | 74 | 1028.1 |
| 20260508162914 | 20 | 55 | 0.0 | 1.6 | 0.00 | 0.00 | 0.00 | 73 | 1028.3 |
| 20260508162412 | 20 | 60 | 1.6 | 3.2 | 0.00 | 0.00 | 0.00 | 72 | 1028.3 |
| 20260508161908 | 20 | 49 | 1.6 | 3.2 | 0.00 | 0.00 | 0.00 | 74 | 1028.2 |
| 20260508161406 | 20 | 64 | 1.6 | 3.2 | 0.00 | 0.00 | 0.00 | 74 | 1028.3 |
| 20260508160903 | 20 | 61 | 3.2 | 4.8 | 0.00 | 0.00 | 0.00 | 73 | 1028.6 |
| 20260508160402 | 20 | 62 | 0.0 | 1.6 | 0.00 | 0.00 | 0.00 | 75 | 1028.5 |
| 20260508155857 | 20 | 68 | 1.6 | 3.2 | 0.00 | 0.00 | 0.00 | 74 | 1028.6 |
| 20260508155355 | 20 | 68 | 0.0 | 1.6 | 0.00 | 0.00 | 0.00 | 74 | 1028.8 |
| 20260508154852 | 20 | 60 | 0.0 | 1.6 | 0.00 | 0.00 | 0.00 | 75 | 1028.9 |
| 20260508154349 | 19 | 64 | 0.0 | 1.6 | 0.00 | 0.00 | 0.00 | 75 | 1028.8 |
| 20260508153845 | 19 | 48 | 1.6 | 1.6 | 0.00 | 0.00 | 0.00 | 75 | 1028.8 |
| 20260508153343 | 19 | 51 | 1.6 | 4.8 | 0.00 | 0.00 | 0.00 | 76 | 1028.8 |
| 20260508152839 | 19 | 14 | 1.6 | 3.2 | 0.00 | 0.00 | 0.00 | 75 | 1028.8 |
| 20260508152335 | 18 | 60 | 0.0 | 4.8 | 0.00 | 0.00 | 0.00 | 76 | 1028.7 |
| 20260508151832 | 18 | 57 | 1.6 | 3.2 | 0.00 | 0.00 | 0.00 | 77 | 1029.2 |
| 20260508151329 | 18 | 92 | 0.0 | 1.6 | 0.00 | 0.00 | 0.00 | 78 | 1029.4 |
| 20260508150825 | 18 | 32 | 1.6 | 3.2 | 0.00 | 0.00 | 0.00 | 78 | 1029.3 |
| 20260508150322 | 17 | 103 | 1.6 | 1.6 | 0.00 | 0.00 | 0.00 | 79 | 1029.3 |
| 20260508145818 | 17 | 50 | 0.0 | 1.6 | 0.00 | 0.00 | 0.00 | 79 | 1029.4 |
| 20260508145314 | 17 | 49 | 1.6 | 3.2 | 0.00 | 0.00 | 0.00 | 79 | 1029.6 |
| 20260508144811 | 17 | 43 | 1.6 | 3.2 | 0.00 | 0.00 | 0.00 | 79 | 1029.7 |
| 20260508144309 | 17 | 47 | 1.6 | 3.2 | 0.00 | 0.00 | 0.00 | 79 | 1029.2 |
| 20260508143807 | 17 | 57 | 3.2 | 3.2 | 0.00 | 0.00 | 0.00 | 79 | 1029.4 |
| 20260508143303 | 17 | 61 | 1.6 | 4.8 | 0.00 | 0.00 | 0.00 | 79 | 1029.5 |
| 20260508142800 | 17 | 43 | 1.6 | 3.2 | 0.00 | 0.00 | 0.00 | 79 | 1029.6 |
| 20260508142257 | 17 | 38 | 1.6 | 3.2 | 0.00 | 0.00 | 0.00 | 79 | 1029.5 |
| 20260508141753 | 17 | 54 | 3.2 | 6.4 | 0.00 | 0.00 | 0.00 | 79 | 1029.4 |
| 20260508141251 | 17 | 13 | 3.2 | 4.8 | 0.00 | 0.00 | 0.00 | 79 | 1029.6 |
| 20260508140748 | 17 | 50 | 1.6 | 3.2 | 0.00 | 0.00 | 0.00 | 80 | 1029.4 |
| 20260508140245 | 17 | 43 | 1.6 | 1.6 | 0.00 | 0.00 | 0.00 | 80 | 1029.3 |
| 20260508135741 | 17 | 31 | 1.6 | 3.2 | 0.00 | 0.00 | 0.00 | 80 | 1029.2 |
| 20260508135237 | 17 | 61 | 3.2 | 3.2 | 0.00 | 0.00 | 0.00 | 80 | 1029.0 |
| 20260508134732 | 17 | 46 | 1.6 | 3.2 | 0.00 | 0.00 | 0.00 | 80 | 1029.2 |
| 20260508134230 | 17 | 26 | 3.2 | 4.8 | 0.00 | 0.00 | 0.00 | 80 | 1029.2 |
| 20260508133726 | 17 | 51 | 1.6 | 3.2 | 0.00 | 0.00 | 0.00 | 81 | 1029.3 |
| 20260508133224 | 17 | 41 | 1.6 | 4.8 | 0.00 | 0.00 | 0.00 | 81 | 1029.4 |
| 20260508132722 | 17 | 57 | 0.0 | 1.6 | 0.00 | 0.00 | 0.00 | 81 | 1029.4 |
| 20260508132220 | 17 | 51 | 1.6 | 3.2 | 0.00 | 0.00 | 0.00 | 81 | 1029.4 |
| 20260508131714 | 17 | 43 | 1.6 | 3.2 | 0.00 | 0.00 | 0.00 | 82 | 1029.5 |
| 20260508131212 | 16 | 44 | 3.2 | 3.2 | 0.00 | 0.00 | 0.00 | 82 | 1029.4 |
| 20260508130708 | 16 | 29 | 1.6 | 3.2 | 0.00 | 0.00 | 0.00 | 83 | 1029.5 |
| 20260508130205 | 16 | 49 | 0.0 | 1.6 | 0.00 | 0.00 | 0.00 | 83 | 1029.4 |
| 20260508125700 | 16 | 52 | 0.0 | 1.6 | 0.00 | 0.00 | 0.00 | 83 | 1029.5 |
| 20260508125157 | 16 | 35 | 1.6 | 3.2 | 0.00 | 0.00 | 0.00 | 84 | 1029.6 |
| 20260508124655 | 16 | 47 | 0.0 | 3.2 | 0.00 | 0.00 | 0.00 | 83 | 1029.6 |
| 20260508124152 | 16 | 23 | 3.2 | 6.4 | 0.00 | 0.00 | 0.00 | 83 | 1029.6 |
| 20260508123651 | 16 | 42 | 1.6 | 4.8 | 0.00 | 0.00 | 0.00 | 83 | 1029.5 |
| 20260508123148 | 16 | 0 | 3.2 | 6.4 | 0.00 | 0.00 | 0.00 | 83 | 1029.7 |
| 20260508122644 | 16 | 41 | 3.2 | 6.4 | 0.00 | 0.00 | 0.00 | 82 | 1029.3 |
| 20260508122141 | 16 | 39 | 1.6 | 4.8 | 0.00 | 0.00 | 0.00 | 82 | 1029.3 |
| 20260508121639 | 16 | 41 | 1.6 | 3.2 | 0.00 | 0.00 | 0.00 | 81 | 1029.3 |
| 20260508121137 | 16 | 31 | 3.2 | 4.8 | 0.00 | 0.00 | 0.00 | 81 | 1029.3 |
| 20260508120634 | 16 | 22 | 1.6 | 3.2 | 0.00 | 0.00 | 0.00 | 81 | 1028.9 |
| 20260508120132 | 16 | 45 | 1.6 | 1.6 | 0.00 | 0.00 | 0.00 | 81 | 1028.8 |
| 20260508115630 | 16 | 51 | 1.6 | 6.4 | 0.00 | 0.00 | 0.00 | 81 | 1028.8 |
| 20260508115126 | 16 | 37 | 1.6 | 3.2 | 0.00 | 0.00 | 0.00 | 82 | 1029.0 |
| 20260508114623 | 16 | 35 | 3.2 | 4.8 | 0.00 | 0.00 | 0.00 | 81 | 1029.0 |
| 20260508114119 | 16 | 38 | 1.6 | 3.2 | 0.00 | 0.00 | 0.00 | 81 | 1029.2 |
| 20260508113617 | 17 | 30 | 1.6 | 9.7 | 0.00 | 0.00 | 0.00 | 80 | 1029.3 |
| 20260508113115 | 17 | 25 | 3.2 | 4.8 | 0.00 | 0.00 | 0.00 | 79 | 1029.4 |
| 20260508112610 | 17 | 82 | 1.6 | 3.2 | 0.00 | 0.00 | 0.00 | 78 | 1029.5 |
| 20260508112108 | 17 | 52 | 1.6 | 3.2 | 0.00 | 0.00 | 0.00 | 77 | 1029.7 |
| 20260508111605 | 17 | 26 | 3.2 | 3.2 | 0.00 | 0.00 | 0.00 | 77 | 1030.0 |
| 20260508111102 | 17 | 357 | 4.8 | 4.8 | 0.00 | 0.00 | 0.00 | 76 | 1030.3 |
| 20260508110600 | 17 | 34 | 4.8 | 4.8 | 0.00 | 0.00 | 0.00 | 76 | 1030.2 |
| 20260508110055 | 17 | 35 | 3.2 | 6.4 | 0.00 | 0.00 | 0.00 | 76 | 1030.2 |
| 20260508105550 | 17 | 1 | 4.8 | 6.4 | 0.00 | 0.00 | 0.00 | 77 | 1030.0 |
| 20260508105048 | 17 | 36 | 3.2 | 3.2 | 0.00 | 0.00 | 0.00 | 78 | 1029.8 |
| 20260508104546 | 17 | 35 | 3.2 | 3.2 | 0.00 | 0.00 | 0.00 | 78 | 1029.7 |
| 20260508104042 | 17 | 54 | 0.0 | 6.4 | 0.00 | 0.00 | 0.00 | 78 | 1029.7 |
| 20260508103539 | 17 | 45 | 3.2 | 3.2 | 0.00 | 0.00 | 0.00 | 79 | 1029.5 |
| 20260508103036 | 17 | 27 | 1.6 | 3.2 | 0.00 | 0.00 | 0.00 | 78 | 1029.5 |
| 20260508102534 | 16 | 48 | 0.0 | 3.2 | 0.00 | 0.00 | 0.00 | 79 | 1029.5 |
| 20260508102032 | 16 | 53 | 1.6 | 3.2 | 0.00 | 0.00 | 0.00 | 79 | 1029.4 |
| 20260508101529 | 16 | 45 | 0.0 | 6.4 | 0.00 | 0.00 | 0.00 | 79 | 1029.2 |
| 20260508101026 | 16 | 62 | 0.0 | 1.6 | 0.00 | 0.00 | 0.00 | 79 | 1029.2 |
| 20260508100524 | 17 | 32 | 1.6 | 1.6 | 0.00 | 0.00 | 0.00 | 79 | 1028.9 |
| 20260508100021 | 17 | 55 | 0.0 | 1.6 | 0.00 | 0.00 | 0.00 | 78 | 1029.0 |
| 20260508095518 | 17 | 29 | 1.6 | 3.2 | 0.00 | 0.00 | 0.00 | 78 | 1029.2 |
| 20260508095014 | 17 | 55 | 0.0 | 1.6 | 0.00 | 0.00 | 0.00 | 77 | 1028.9 |
| 20260508094512 | 17 | 54 | 0.0 | 1.6 | 0.00 | 0.00 | 0.00 | 77 | 1028.9 |
| 20260508094008 | 17 | 111 | 1.6 | 3.2 | 0.00 | 0.00 | 0.00 | 76 | 1029.0 |
| 20260508093505 | 17 | 342 | 6.4 | 9.7 | 0.00 | 0.00 | 0.00 | 76 | 1029.8 |
| 20260508093003 | 17 | 61 | 1.6 | 3.2 | 0.00 | 0.00 | 0.00 | 77 | 1029.3 |
| 20260508092500 | 17 | 331 | 1.6 | 4.8 | 0.00 | 0.00 | 0.00 | 77 | 1028.7 |
| 20260508091959 | 17 | 106 | 1.6 | 3.2 | 0.00 | 0.00 | 0.00 | 77 | 1029.7 |
| 20260508091455 | 17 | 216 | 4.8 | 4.8 | 0.00 | 0.00 | 0.00 | 76 | 1030.2 |
| 20260508090953 | 17 | 59 | 0.0 | 1.6 | 0.00 | 0.00 | 0.00 | 76 | 1029.7 |
| 20260508090451 | 17 | 45 | 0.0 | 1.6 | 0.00 | 0.00 | 0.00 | 75 | 1029.8 |
| 20260508085947 | 17 | 61 | 1.6 | 1.6 | 0.00 | 0.00 | 0.00 | 76 | 1029.9 |
| 20260508085443 | 17 | 56 | 3.2 | 3.2 | 0.00 | 0.00 | 0.00 | 76 | 1029.7 |
| 20260508084940 | 17 | 25 | 1.6 | 3.2 | 0.00 | 0.00 | 0.00 | 76 | 1029.4 |
| 20260508084437 | 17 | 48 | 0.0 | 1.6 | 0.00 | 0.00 | 0.00 | 76 | 1029.6 |
| 20260508083935 | 17 | 44 | 1.6 | 3.2 | 0.00 | 0.00 | 0.00 | 76 | 1029.5 |
| 20260508083432 | 17 | 14 | 3.2 | 4.8 | 0.00 | 0.00 | 0.00 | 76 | 1029.7 |
| 20260508082932 | 17 | 29 | 3.2 | 4.8 | 0.00 | 0.00 | 0.00 | 77 | 1029.0 |
| 20260508082429 | 17 | 38 | 0.0 | 1.6 | 0.00 | 0.00 | 0.00 | 77 | 1028.8 |
| 20260508081927 | 17 | 70 | 1.6 | 4.8 | 0.00 | 0.00 | 0.00 | 76 | 1029.4 |
| 20260508081424 | 17 | 55 | 0.0 | 1.6 | 0.00 | 0.00 | 0.00 | 76 | 1029.7 |
| 20260508080920 | 17 | 61 | 0.0 | 3.2 | 0.00 | 0.00 | 0.00 | 76 | 1029.9 |
| 20260508080419 | 17 | 80 | 0.0 | 1.6 | 0.00 | 0.00 | 0.00 | 76 | 1030.0 |
| 20260508075915 | 17 | 53 | 0.0 | 3.2 | 0.00 | 0.00 | 0.00 | 75 | 1029.8 |
| 20260508075412 | 17 | 45 | 0.0 | 3.2 | 0.00 | 0.00 | 0.00 | 73 | 1029.9 |
| 20260508074910 | 17 | 52 | 0.0 | 3.2 | 0.00 | 0.00 | 0.00 | 71 | 1030.1 |
| 20260508074407 | 17 | 39 | 1.6 | 3.2 | 0.00 | 0.00 | 0.00 | 71 | 1030.2 |
| 20260508073904 | 17 | 49 | 1.6 | 3.2 | 0.00 | 0.00 | 0.00 | 71 | 1030.3 |
| 20260508073402 | 17 | 40 | 3.2 | 4.8 | 0.00 | 0.00 | 0.00 | 71 | 1030.1 |